sensor_id;sensor_type;location;lat;lon;timestamp;temperature;humidity
63051;SHT30;49136;47.416;19.402;2022-10-31T00:00:17;11.42;98.06
63051;SHT30;49136;47.416;19.402;2022-10-31T00:02:42;11.39;98.07
63051;SHT30;49136;47.416;19.402;2022-10-31T00:05:08;11.40;98.11
63051;SHT30;49136;47.416;19.402;2022-10-31T00:07:34;11.42;98.07
63051;SHT30;49136;47.416;19.402;2022-10-31T00:09:59;11.39;98.11
63051;SHT30;49136;47.416;19.402;2022-10-31T00:12:25;11.39;98.14
63051;SHT30;49136;47.416;19.402;2022-10-31T00:14:51;11.37;98.15
63051;SHT30;49136;47.416;19.402;2022-10-31T00:17:16;11.40;98.15
63051;SHT30;49136;47.416;19.402;2022-10-31T00:19:42;11.36;98.14
63051;SHT30;49136;47.416;19.402;2022-10-31T00:22:07;11.39;98.17
63051;SHT30;49136;47.416;19.402;2022-10-31T00:24:32;11.39;98.16
63051;SHT30;49136;47.416;19.402;2022-10-31T00:26:58;11.39;98.19
63051;SHT30;49136;47.416;19.402;2022-10-31T00:29:23;11.39;98.22
63051;SHT30;49136;47.416;19.402;2022-10-31T00:31:48;11.37;98.25
63051;SHT30;49136;47.416;19.402;2022-10-31T00:34:14;11.34;98.32
63051;SHT30;49136;47.416;19.402;2022-10-31T00:36:39;11.37;98.37
63051;SHT30;49136;47.416;19.402;2022-10-31T00:39:04;11.34;98.44
63051;SHT30;49136;47.416;19.402;2022-10-31T00:41:30;11.33;98.48
63051;SHT30;49136;47.416;19.402;2022-10-31T00:43:55;11.34;98.49
63051;SHT30;49136;47.416;19.402;2022-10-31T00:46:21;11.36;98.52
63051;SHT30;49136;47.416;19.402;2022-10-31T00:48:46;11.34;98.47
63051;SHT30;49136;47.416;19.402;2022-10-31T00:51:11;11.36;98.51
63051;SHT30;49136;47.416;19.402;2022-10-31T00:53:37;11.34;98.49
63051;SHT30;49136;47.416;19.402;2022-10-31T00:56:03;11.30;98.55
63051;SHT30;49136;47.416;19.402;2022-10-31T00:58:29;11.30;98.48
63051;SHT30;49136;47.416;19.402;2022-10-31T01:00:54;11.29;98.52
63051;SHT30;49136;47.416;19.402;2022-10-31T01:03:26;11.30;98.51
63051;SHT30;49136;47.416;19.402;2022-10-31T01:06:04;11.23;98.57
63051;SHT30;49136;47.416;19.402;2022-10-31T01:08:30;11.26;98.54
63051;SHT30;49136;47.416;19.402;2022-10-31T01:11:17;11.20;98.53
63051;SHT30;49136;47.416;19.402;2022-10-31T01:13:43;11.19;98.55
63051;SHT30;49136;47.416;19.402;2022-10-31T01:16:15;11.18;98.54
63051;SHT30;49136;47.416;19.402;2022-10-31T01:18:40;11.18;98.51
63051;SHT30;49136;47.416;19.402;2022-10-31T01:21:12;11.12;98.54
63051;SHT30;49136;47.416;19.402;2022-10-31T01:23:38;11.15;98.52
63051;SHT30;49136;47.416;19.402;2022-10-31T01:26:24;11.14;98.56
63051;SHT30;49136;47.416;19.402;2022-10-31T01:28:58;11.15;98.61
63051;SHT30;49136;47.416;19.402;2022-10-31T01:31:27;11.19;98.60
63051;SHT30;49136;47.416;19.402;2022-10-31T01:33:54;11.16;98.58
63051;SHT30;49136;47.416;19.402;2022-10-31T01:38:46;11.16;98.58
63051;SHT30;49136;47.416;19.402;2022-10-31T01:41:15;11.18;98.57
63051;SHT30;49136;47.416;19.402;2022-10-31T01:44:00;11.18;98.62
63051;SHT30;49136;47.416;19.402;2022-10-31T01:46:38;11.15;98.62
63051;SHT30;49136;47.416;19.402;2022-10-31T01:49:10;11.15;98.59
63051;SHT30;49136;47.416;19.402;2022-10-31T01:51:42;11.14;98.65
63051;SHT30;49136;47.416;19.402;2022-10-31T01:54:12;11.16;98.68
63051;SHT30;49136;47.416;19.402;2022-10-31T01:56:43;11.18;98.70
63051;SHT30;49136;47.416;19.402;2022-10-31T01:59:12;11.16;98.67
63051;SHT30;49136;47.416;19.402;2022-10-31T02:01:40;11.18;98.68
63051;SHT30;49136;47.416;19.402;2022-10-31T02:04:06;11.15;98.71
63051;SHT30;49136;47.416;19.402;2022-10-31T02:06:38;11.15;98.71
63051;SHT30;49136;47.416;19.402;2022-10-31T02:09:06;11.16;98.72
63051;SHT30;49136;47.416;19.402;2022-10-31T02:11:32;11.16;98.69
63051;SHT30;49136;47.416;19.402;2022-10-31T02:14:01;11.18;98.76
63051;SHT30;49136;47.416;19.402;2022-10-31T02:16:27;11.23;98.78
63051;SHT30;49136;47.416;19.402;2022-10-31T02:18:53;11.18;98.82
63051;SHT30;49136;47.416;19.402;2022-10-31T02:35:12;11.15;98.97
63051;SHT30;49136;47.416;19.402;2022-10-31T02:40:21;11.12;99.00
63051;SHT30;49136;47.416;19.402;2022-10-31T02:42:54;11.14;99.00
63051;SHT30;49136;47.416;19.402;2022-10-31T02:45:30;11.14;98.99
63051;SHT30;49136;47.416;19.402;2022-10-31T02:48:00;11.12;98.96
63051;SHT30;49136;47.416;19.402;2022-10-31T02:50:33;11.11;98.87
63051;SHT30;49136;47.416;19.402;2022-10-31T02:53:00;11.05;98.94
63051;SHT30;49136;47.416;19.402;2022-10-31T02:57:55;11.02;98.92
63051;SHT30;49136;47.416;19.402;2022-10-31T03:00:22;11.01;98.94
63051;SHT30;49136;47.416;19.402;2022-10-31T03:03:14;10.98;98.93
63051;SHT30;49136;47.416;19.402;2022-10-31T03:06:02;10.99;98.93
63051;SHT30;49136;47.416;19.402;2022-10-31T03:08:39;10.98;98.87
63051;SHT30;49136;47.416;19.402;2022-10-31T03:11:08;10.98;98.90
63051;SHT30;49136;47.416;19.402;2022-10-31T03:14:14;10.98;98.88
63051;SHT30;49136;47.416;19.402;2022-10-31T03:16:53;10.92;98.89
63051;SHT30;49136;47.416;19.402;2022-10-31T03:19:25;10.92;98.93
63051;SHT30;49136;47.416;19.402;2022-10-31T03:22:02;10.90;98.88
63051;SHT30;49136;47.416;19.402;2022-10-31T03:24:32;10.90;98.96
63051;SHT30;49136;47.416;19.402;2022-10-31T03:27:00;10.87;98.97
63051;SHT30;49136;47.416;19.402;2022-10-31T03:29:29;10.87;98.98
63051;SHT30;49136;47.416;19.402;2022-10-31T03:32:06;10.85;99.03
63051;SHT30;49136;47.416;19.402;2022-10-31T03:34:35;10.85;99.03
63051;SHT30;49136;47.416;19.402;2022-10-31T03:37:03;10.87;99.05
63051;SHT30;49136;47.416;19.402;2022-10-31T03:39:30;10.88;99.08
63051;SHT30;49136;47.416;19.402;2022-10-31T03:42:02;10.85;99.12
63051;SHT30;49136;47.416;19.402;2022-10-31T03:44:30;10.83;99.10
63051;SHT30;49136;47.416;19.402;2022-10-31T03:46:57;10.84;99.16
63051;SHT30;49136;47.416;19.402;2022-10-31T03:49:22;10.85;99.14
63051;SHT30;49136;47.416;19.402;2022-10-31T03:51:58;10.88;99.12
63051;SHT30;49136;47.416;19.402;2022-10-31T03:54:30;10.88;99.18
63051;SHT30;49136;47.416;19.402;2022-10-31T03:59:48;10.87;99.22
63051;SHT30;49136;47.416;19.402;2022-10-31T04:02:18;10.88;99.25
63051;SHT30;49136;47.416;19.402;2022-10-31T04:04:46;10.85;99.25
63051;SHT30;49136;47.416;19.402;2022-10-31T04:07:13;10.87;99.24
63051;SHT30;49136;47.416;19.402;2022-10-31T04:09:42;10.87;99.19
63051;SHT30;49136;47.416;19.402;2022-10-31T04:12:11;10.81;99.18
63051;SHT30;49136;47.416;19.402;2022-10-31T04:14:41;10.87;99.22
63051;SHT30;49136;47.416;19.402;2022-10-31T04:17:10;10.84;99.20
63051;SHT30;49136;47.416;19.402;2022-10-31T04:19:37;10.84;99.21
63051;SHT30;49136;47.416;19.402;2022-10-31T04:22:02;10.85;99.20
63051;SHT30;49136;47.416;19.402;2022-10-31T04:24:27;10.88;99.20
63051;SHT30;49136;47.416;19.402;2022-10-31T04:26:53;10.91;99.20
63051;SHT30;49136;47.416;19.402;2022-10-31T04:29:18;10.88;99.20
63051;SHT30;49136;47.416;19.402;2022-10-31T04:31:43;10.83;99.19
63051;SHT30;49136;47.416;19.402;2022-10-31T04:34:09;10.81;99.19
63051;SHT30;49136;47.416;19.402;2022-10-31T04:36:34;10.83;99.22
63051;SHT30;49136;47.416;19.402;2022-10-31T04:38:59;10.85;99.21
63051;SHT30;49136;47.416;19.402;2022-10-31T04:41:25;10.81;99.19
63051;SHT30;49136;47.416;19.402;2022-10-31T04:43:50;10.81;99.17
63051;SHT30;49136;47.416;19.402;2022-10-31T04:46:16;10.81;99.19
63051;SHT30;49136;47.416;19.402;2022-10-31T04:48:41;10.71;99.15
63051;SHT30;49136;47.416;19.402;2022-10-31T04:51:06;10.66;99.05
63051;SHT30;49136;47.416;19.402;2022-10-31T04:53:32;10.66;99.03
63051;SHT30;49136;47.416;19.402;2022-10-31T04:55:58;10.70;99.00
63051;SHT30;49136;47.416;19.402;2022-10-31T04:58:24;10.71;98.99
63051;SHT30;49136;47.416;19.402;2022-10-31T05:00:54;10.71;99.02
63051;SHT30;49136;47.416;19.402;2022-10-31T05:03:20;10.71;99.01
63051;SHT30;49136;47.416;19.402;2022-10-31T05:05:45;10.67;99.03
63051;SHT30;49136;47.416;19.402;2022-10-31T05:08:10;10.66;99.02
63051;SHT30;49136;47.416;19.402;2022-10-31T05:10:37;10.70;99.08
63051;SHT30;49136;47.416;19.402;2022-10-31T05:13:03;10.70;99.06
63051;SHT30;49136;47.416;19.402;2022-10-31T05:15:29;10.71;99.01
63051;SHT30;49136;47.416;19.402;2022-10-31T05:17:55;10.71;99.01
63051;SHT30;49136;47.416;19.402;2022-10-31T05:20:25;10.75;99.01
63051;SHT30;49136;47.416;19.402;2022-10-31T05:22:53;10.74;98.98
63051;SHT30;49136;47.416;19.402;2022-10-31T05:25:20;10.74;98.97
63051;SHT30;49136;47.416;19.402;2022-10-31T05:27:48;10.73;98.96
63051;SHT30;49136;47.416;19.402;2022-10-31T05:30:17;10.68;98.99
63051;SHT30;49136;47.416;19.402;2022-10-31T05:32:45;10.73;99.06
63051;SHT30;49136;47.416;19.402;2022-10-31T05:35:16;10.74;99.08
63051;SHT30;49136;47.416;19.402;2022-10-31T05:37:41;10.77;99.05
63051;SHT30;49136;47.416;19.402;2022-10-31T05:40:09;10.83;99.06
63051;SHT30;49136;47.416;19.402;2022-10-31T05:42:35;10.90;99.11
63051;SHT30;49136;47.416;19.402;2022-10-31T05:45:00;10.87;99.09
63051;SHT30;49136;47.416;19.402;2022-10-31T05:47:27;10.88;99.08
63051;SHT30;49136;47.416;19.402;2022-10-31T05:49:52;10.90;99.03
63051;SHT30;49136;47.416;19.402;2022-10-31T05:52:18;10.91;99.04
63051;SHT30;49136;47.416;19.402;2022-10-31T05:54:43;10.92;99.02
63051;SHT30;49136;47.416;19.402;2022-10-31T05:57:09;10.95;99.05
63051;SHT30;49136;47.416;19.402;2022-10-31T05:59:34;10.95;99.06
63051;SHT30;49136;47.416;19.402;2022-10-31T06:01:59;10.98;98.99
63051;SHT30;49136;47.416;19.402;2022-10-31T06:04:25;10.99;98.99
63051;SHT30;49136;47.416;19.402;2022-10-31T06:06:50;11.01;98.89
63051;SHT30;49136;47.416;19.402;2022-10-31T06:09:16;11.07;98.91
63051;SHT30;49136;47.416;19.402;2022-10-31T06:11:41;11.05;98.81
63051;SHT30;49136;47.416;19.402;2022-10-31T06:14:06;11.04;98.78
63051;SHT30;49136;47.416;19.402;2022-10-31T06:16:32;11.05;98.76
63051;SHT30;49136;47.416;19.402;2022-10-31T06:18:58;11.09;98.68
63051;SHT30;49136;47.416;19.402;2022-10-31T06:21:23;11.09;98.68
63051;SHT30;49136;47.416;19.402;2022-10-31T06:23:48;11.11;98.60
63051;SHT30;49136;47.416;19.402;2022-10-31T06:26:14;11.15;98.55
63051;SHT30;49136;47.416;19.402;2022-10-31T06:28:39;11.18;98.55
63051;SHT30;49136;47.416;19.402;2022-10-31T06:31:05;11.19;98.55
63051;SHT30;49136;47.416;19.402;2022-10-31T06:33:31;11.16;98.50
63051;SHT30;49136;47.416;19.402;2022-10-31T06:35:57;11.19;98.47
63051;SHT30;49136;47.416;19.402;2022-10-31T06:38:22;11.26;98.45
63051;SHT30;49136;47.416;19.402;2022-10-31T06:40:47;11.32;98.45
63051;SHT30;49136;47.416;19.402;2022-10-31T06:43:13;11.30;98.40
63051;SHT30;49136;47.416;19.402;2022-10-31T06:45:40;11.34;98.41
63051;SHT30;49136;47.416;19.402;2022-10-31T06:48:05;11.22;98.43
63051;SHT30;49136;47.416;19.402;2022-10-31T06:50:30;11.20;98.41
63051;SHT30;49136;47.416;19.402;2022-10-31T06:52:57;11.18;98.33
63051;SHT30;49136;47.416;19.402;2022-10-31T06:55:24;11.01;98.37
63051;SHT30;49136;47.416;19.402;2022-10-31T06:57:54;11.11;98.36
63051;SHT30;49136;47.416;19.402;2022-10-31T07:00:20;11.16;98.35
63051;SHT30;49136;47.416;19.402;2022-10-31T07:02:56;11.15;98.34
63051;SHT30;49136;47.416;19.402;2022-10-31T07:05:22;11.22;98.35
63051;SHT30;49136;47.416;19.402;2022-10-31T07:07:51;11.16;98.37
63051;SHT30;49136;47.416;19.402;2022-10-31T07:10:16;11.12;98.36
63051;SHT30;49136;47.416;19.402;2022-10-31T07:12:41;11.15;98.31
63051;SHT30;49136;47.416;19.402;2022-10-31T07:15:07;11.23;98.33
63051;SHT30;49136;47.416;19.402;2022-10-31T07:17:32;11.29;98.35
63051;SHT30;49136;47.416;19.402;2022-10-31T07:19:58;11.32;98.37
63051;SHT30;49136;47.416;19.402;2022-10-31T07:22:23;11.39;98.34
63051;SHT30;49136;47.416;19.402;2022-10-31T07:24:48;11.42;98.33
63051;SHT30;49136;47.416;19.402;2022-10-31T07:27:14;11.43;98.34
63051;SHT30;49136;47.416;19.402;2022-10-31T07:29:39;11.46;98.33
63051;SHT30;49136;47.416;19.402;2022-10-31T07:32:04;11.50;98.35
63051;SHT30;49136;47.416;19.402;2022-10-31T07:34:30;11.53;98.36
63051;SHT30;49136;47.416;19.402;2022-10-31T07:36:55;11.60;98.31
63051;SHT30;49136;47.416;19.402;2022-10-31T07:39:20;11.63;98.36
63051;SHT30;49136;47.416;19.402;2022-10-31T07:41:46;11.68;98.44
63051;SHT30;49136;47.416;19.402;2022-10-31T07:44:11;11.68;98.43
63051;SHT30;49136;47.416;19.402;2022-10-31T07:46:36;11.68;98.36
63051;SHT30;49136;47.416;19.402;2022-10-31T07:49:02;11.74;98.36
63051;SHT30;49136;47.416;19.402;2022-10-31T07:51:27;11.77;98.37
63051;SHT30;49136;47.416;19.402;2022-10-31T07:53:53;11.70;98.28
63051;SHT30;49136;47.416;19.402;2022-10-31T07:56:18;11.68;98.24
63051;SHT30;49136;47.416;19.402;2022-10-31T07:58:43;11.73;98.23
63051;SHT30;49136;47.416;19.402;2022-10-31T08:01:09;11.85;98.47
63051;SHT30;49136;47.416;19.402;2022-10-31T08:03:34;11.71;98.02
63051;SHT30;49136;47.416;19.402;2022-10-31T08:05:59;11.46;98.07
63051;SHT30;49136;47.416;19.402;2022-10-31T08:08:25;11.70;98.15
63051;SHT30;49136;47.416;19.402;2022-10-31T08:10:53;11.84;98.18
63051;SHT30;49136;47.416;19.402;2022-10-31T08:13:18;11.54;98.09
63051;SHT30;49136;47.416;19.402;2022-10-31T08:15:44;11.70;98.16
63051;SHT30;49136;47.416;19.402;2022-10-31T08:18:15;11.78;98.12
63051;SHT30;49136;47.416;19.402;2022-10-31T08:20:44;11.81;98.02
63051;SHT30;49136;47.416;19.402;2022-10-31T08:23:10;11.85;98.01
63051;SHT30;49136;47.416;19.402;2022-10-31T08:25:37;11.73;98.01
63051;SHT30;49136;47.416;19.402;2022-10-31T08:28:02;11.67;97.94
63051;SHT30;49136;47.416;19.402;2022-10-31T08:30:30;11.74;98.02
63051;SHT30;49136;47.416;19.402;2022-10-31T08:33:14;11.68;98.07
63051;SHT30;49136;47.416;19.402;2022-10-31T08:35:40;11.84;98.10
63051;SHT30;49136;47.416;19.402;2022-10-31T08:38:06;11.78;98.00
63051;SHT30;49136;47.416;19.402;2022-10-31T08:40:32;11.70;98.06
63051;SHT30;49136;47.416;19.402;2022-10-31T08:42:59;11.60;98.13
63051;SHT30;49136;47.416;19.402;2022-10-31T08:45:26;11.79;98.04
63051;SHT30;49136;47.416;19.402;2022-10-31T08:47:51;11.86;98.02
63051;SHT30;49136;47.416;19.402;2022-10-31T08:50:17;11.99;98.01
63051;SHT30;49136;47.416;19.402;2022-10-31T08:52:42;11.77;97.81
63051;SHT30;49136;47.416;19.402;2022-10-31T08:55:08;11.94;98.05
63051;SHT30;49136;47.416;19.402;2022-10-31T08:57:33;12.13;98.02
63051;SHT30;49136;47.416;19.402;2022-10-31T08:59:59;12.13;98.02
63051;SHT30;49136;47.416;19.402;2022-10-31T09:02:24;12.26;97.99
63051;SHT30;49136;47.416;19.402;2022-10-31T09:04:49;12.34;97.99
63051;SHT30;49136;47.416;19.402;2022-10-31T09:07:15;12.25;97.85
63051;SHT30;49136;47.416;19.402;2022-10-31T09:09:40;12.30;97.83
63051;SHT30;49136;47.416;19.402;2022-10-31T09:12:05;12.30;97.88
63051;SHT30;49136;47.416;19.402;2022-10-31T09:14:31;12.32;97.78
63051;SHT30;49136;47.416;19.402;2022-10-31T09:16:56;12.40;97.79
63051;SHT30;49136;47.416;19.402;2022-10-31T09:19:21;12.45;97.77
63051;SHT30;49136;47.416;19.402;2022-10-31T09:21:47;12.54;97.71
63051;SHT30;49136;47.416;19.402;2022-10-31T09:24:12;12.53;97.68
63051;SHT30;49136;47.416;19.402;2022-10-31T09:26:38;12.43;97.47
63051;SHT30;49136;47.416;19.402;2022-10-31T09:29:03;12.47;97.57
63051;SHT30;49136;47.416;19.402;2022-10-31T09:31:29;12.41;97.48
63051;SHT30;49136;47.416;19.402;2022-10-31T09:33:55;12.48;97.74
63051;SHT30;49136;47.416;19.402;2022-10-31T09:36:20;12.48;97.66
63051;SHT30;49136;47.416;19.402;2022-10-31T09:38:45;12.55;97.79
63051;SHT30;49136;47.416;19.402;2022-10-31T09:44:05;12.57;97.64
63051;SHT30;49136;47.416;19.402;2022-10-31T09:52:01;12.68;97.55
63051;SHT30;49136;47.416;19.402;2022-10-31T09:54:42;12.36;97.14
63051;SHT30;49136;47.416;19.402;2022-10-31T09:57:14;12.54;97.50
63051;SHT30;49136;47.416;19.402;2022-10-31T09:59:41;12.58;97.52
63051;SHT30;49136;47.416;19.402;2022-10-31T10:02:29;12.57;97.57
63051;SHT30;49136;47.416;19.402;2022-10-31T10:05:04;12.57;97.34
63051;SHT30;49136;47.416;19.402;2022-10-31T10:16:00;12.62;97.55
63051;SHT30;49136;47.416;19.402;2022-10-31T10:26:43;12.60;97.59
63051;SHT30;49136;47.416;19.402;2022-10-31T10:31:55;12.38;97.64
63051;SHT30;49136;47.416;19.402;2022-10-31T10:34:29;12.29;97.76
63051;SHT30;49136;47.416;19.402;2022-10-31T10:37:01;12.27;97.75
63051;SHT30;49136;47.416;19.402;2022-10-31T10:39:47;12.20;97.73
63051;SHT30;49136;47.416;19.402;2022-10-31T10:42:14;12.29;97.88
63051;SHT30;49136;47.416;19.402;2022-10-31T10:45:00;12.27;97.76
63051;SHT30;49136;47.416;19.402;2022-10-31T10:47:59;12.37;97.71
63051;SHT30;49136;47.416;19.402;2022-10-31T10:50:34;12.15;97.83
63051;SHT30;49136;47.416;19.402;2022-10-31T10:53:25;12.36;97.70
63051;SHT30;49136;47.416;19.402;2022-10-31T10:58:40;12.32;97.46
63051;SHT30;49136;47.416;19.402;2022-10-31T11:01:14;12.61;97.54
63051;SHT30;49136;47.416;19.402;2022-10-31T11:03:41;12.69;97.58
63051;SHT30;49136;47.416;19.402;2022-10-31T11:06:20;12.79;97.37
63051;SHT30;49136;47.416;19.402;2022-10-31T11:08:50;12.69;97.38
63051;SHT30;49136;47.416;19.402;2022-10-31T11:13:44;12.71;97.53
63051;SHT30;49136;47.416;19.402;2022-10-31T11:16:13;12.89;97.44
63051;SHT30;49136;47.416;19.402;2022-10-31T11:18:42;12.79;97.41
63051;SHT30;49136;47.416;19.402;2022-10-31T11:21:20;12.86;97.40
63051;SHT30;49136;47.416;19.402;2022-10-31T11:23:46;12.95;97.48
63051;SHT30;49136;47.416;19.402;2022-10-31T11:26:20;13.07;97.15
63051;SHT30;49136;47.416;19.402;2022-10-31T11:28:57;13.06;97.29
63051;SHT30;49136;47.416;19.402;2022-10-31T11:31:23;12.99;97.07
63051;SHT30;49136;47.416;19.402;2022-10-31T11:33:51;13.02;97.29
63051;SHT30;49136;47.416;19.402;2022-10-31T11:36:23;13.02;97.11
63051;SHT30;49136;47.416;19.402;2022-10-31T11:38:50;12.92;97.29
63051;SHT30;49136;47.416;19.402;2022-10-31T11:41:18;12.85;97.29
63051;SHT30;49136;47.416;19.402;2022-10-31T11:46:38;12.58;97.48
63051;SHT30;49136;47.416;19.402;2022-10-31T11:49:05;12.55;97.48
63051;SHT30;49136;47.416;19.402;2022-10-31T11:51:36;12.65;97.66
63051;SHT30;49136;47.416;19.402;2022-10-31T11:54:03;12.61;97.58
63051;SHT30;49136;47.416;19.402;2022-10-31T11:56:42;12.69;97.68
63051;SHT30;49136;47.416;19.402;2022-10-31T11:59:28;12.67;97.72
63051;SHT30;49136;47.416;19.402;2022-10-31T12:01:55;12.65;97.48
63051;SHT30;49136;47.416;19.402;2022-10-31T12:04:50;12.58;97.61
63051;SHT30;49136;47.416;19.402;2022-10-31T12:07:16;12.53;97.57
63051;SHT30;49136;47.416;19.402;2022-10-31T12:09:41;12.58;97.47
63051;SHT30;49136;47.416;19.402;2022-10-31T12:18:40;12.43;97.71
63051;SHT30;49136;47.416;19.402;2022-10-31T12:23:16;12.69;97.58
63051;SHT30;49136;47.416;19.402;2022-10-31T12:28:41;12.82;97.42
63051;SHT30;49136;47.416;19.402;2022-10-31T12:37:30;12.60;97.55
63051;SHT30;49136;47.416;19.402;2022-10-31T12:42:54;12.68;97.48
63051;SHT30;49136;47.416;19.402;2022-10-31T12:45:57;12.54;97.51
63051;SHT30;49136;47.416;19.402;2022-10-31T12:48:57;12.27;97.49
63051;SHT30;49136;47.416;19.402;2022-10-31T12:56:34;12.60;97.63
63051;SHT30;49136;47.416;19.402;2022-10-31T12:59:42;12.68;97.67
63051;SHT30;49136;47.416;19.402;2022-10-31T13:02:24;12.74;97.61
63051;SHT30;49136;47.416;19.402;2022-10-31T13:05:00;12.71;97.57
63051;SHT30;49136;47.416;19.402;2022-10-31T13:10:50;12.43;97.25
63051;SHT30;49136;47.416;19.402;2022-10-31T13:16:14;12.41;97.69
63051;SHT30;49136;47.416;19.402;2022-10-31T13:22:06;12.26;97.78
63051;SHT30;49136;47.416;19.402;2022-10-31T13:24:41;12.32;97.78
63051;SHT30;49136;47.416;19.402;2022-10-31T13:27:26;12.29;97.78
63051;SHT30;49136;47.416;19.402;2022-10-31T13:30:23;12.30;97.74
63051;SHT30;49136;47.416;19.402;2022-10-31T13:33:03;12.25;97.82
63051;SHT30;49136;47.416;19.402;2022-10-31T13:35:41;12.20;97.82
63051;SHT30;49136;47.416;19.402;2022-10-31T13:38:24;12.19;97.88
63051;SHT30;49136;47.416;19.402;2022-10-31T13:44:14;12.12;97.86
63051;SHT30;49136;47.416;19.402;2022-10-31T13:46:42;12.16;97.93
63051;SHT30;49136;47.416;19.402;2022-10-31T13:54:39;12.01;97.98
63051;SHT30;49136;47.416;19.402;2022-10-31T13:57:41;12.01;97.99
63051;SHT30;49136;47.416;19.402;2022-10-31T14:02:53;11.91;97.90
63051;SHT30;49136;47.416;19.402;2022-10-31T14:05:32;11.96;97.99
63051;SHT30;49136;47.416;19.402;2022-10-31T14:08:01;12.02;97.96
63051;SHT30;49136;47.416;19.402;2022-10-31T14:10:38;12.02;97.92
63051;SHT30;49136;47.416;19.402;2022-10-31T14:13:07;11.84;97.96
63051;SHT30;49136;47.416;19.402;2022-10-31T14:15:33;11.84;97.96
63051;SHT30;49136;47.416;19.402;2022-10-31T14:18:05;11.82;98.00
63051;SHT30;49136;47.416;19.402;2022-10-31T14:20:40;11.77;97.96
63051;SHT30;49136;47.416;19.402;2022-10-31T14:25:37;11.88;97.99
63051;SHT30;49136;47.416;19.402;2022-10-31T14:28:19;11.82;98.02
63051;SHT30;49136;47.416;19.402;2022-10-31T14:30:56;11.77;98.00
63051;SHT30;49136;47.416;19.402;2022-10-31T14:33:25;11.70;98.04
63051;SHT30;49136;47.416;19.402;2022-10-31T14:36:04;11.64;97.95
63051;SHT30;49136;47.416;19.402;2022-10-31T14:39:00;11.66;98.00
63051;SHT30;49136;47.416;19.402;2022-10-31T14:42:10;11.64;98.12
63051;SHT30;49136;47.416;19.402;2022-10-31T14:44:54;11.67;98.04
63051;SHT30;49136;47.416;19.402;2022-10-31T14:50:25;11.59;98.02
63051;SHT30;49136;47.416;19.402;2022-10-31T14:52:56;11.59;98.03
63051;SHT30;49136;47.416;19.402;2022-10-31T14:55:23;11.57;98.05
63051;SHT30;49136;47.416;19.402;2022-10-31T14:57:53;11.43;97.93
63051;SHT30;49136;47.416;19.402;2022-10-31T15:00:21;11.47;97.99
63051;SHT30;49136;47.416;19.402;2022-10-31T15:05:21;11.49;98.00
63051;SHT30;49136;47.416;19.402;2022-10-31T15:07:54;11.34;97.96
63051;SHT30;49136;47.416;19.402;2022-10-31T15:10:30;11.36;98.05
63051;SHT30;49136;47.416;19.402;2022-10-31T15:13:08;11.33;98.07
63051;SHT30;49136;47.416;19.402;2022-10-31T15:15:34;11.39;98.10
63051;SHT30;49136;47.416;19.402;2022-10-31T15:18:00;11.36;98.13
63051;SHT30;49136;47.416;19.402;2022-10-31T15:20:44;11.26;98.08
63051;SHT30;49136;47.416;19.402;2022-10-31T15:23:27;11.30;98.16
63051;SHT30;49136;47.416;19.402;2022-10-31T15:26:04;11.27;98.11
63051;SHT30;49136;47.416;19.402;2022-10-31T15:28:30;11.23;98.17
63051;SHT30;49136;47.416;19.402;2022-10-31T15:30:58;11.20;98.22
63051;SHT30;49136;47.416;19.402;2022-10-31T15:33:27;11.23;98.24
63051;SHT30;49136;47.416;19.402;2022-10-31T15:35:58;11.18;98.31
63051;SHT30;49136;47.416;19.402;2022-10-31T15:38:25;11.20;98.34
63051;SHT30;49136;47.416;19.402;2022-10-31T15:40:58;11.20;98.37
63051;SHT30;49136;47.416;19.402;2022-10-31T15:43:24;11.16;98.35
63051;SHT30;49136;47.416;19.402;2022-10-31T15:45:49;11.16;98.38
63051;SHT30;49136;47.416;19.402;2022-10-31T15:48:17;11.14;98.41
63051;SHT30;49136;47.416;19.402;2022-10-31T15:51:01;11.09;98.41
63051;SHT30;49136;47.416;19.402;2022-10-31T15:53:51;11.09;98.47
63051;SHT30;49136;47.416;19.402;2022-10-31T15:56:22;11.11;98.50
63051;SHT30;49136;47.416;19.402;2022-10-31T15:58:50;11.09;98.64
63051;SHT30;49136;47.416;19.402;2022-10-31T16:01:27;11.15;98.64
63051;SHT30;49136;47.416;19.402;2022-10-31T16:04:05;11.12;98.68
63051;SHT30;49136;47.416;19.402;2022-10-31T16:06:44;11.12;98.74
63051;SHT30;49136;47.416;19.402;2022-10-31T16:09:23;11.15;98.79
63051;SHT30;49136;47.416;19.402;2022-10-31T16:11:49;11.12;98.73
63051;SHT30;49136;47.416;19.402;2022-10-31T16:14:22;11.16;98.75
63051;SHT30;49136;47.416;19.402;2022-10-31T16:16:51;11.14;98.77
63051;SHT30;49136;47.416;19.402;2022-10-31T16:22:20;11.25;98.80
63051;SHT30;49136;47.416;19.402;2022-10-31T16:25:10;11.16;98.69
63051;SHT30;49136;47.416;19.402;2022-10-31T16:27:37;11.11;98.73
63051;SHT30;49136;47.416;19.402;2022-10-31T16:33:03;11.15;98.77
63051;SHT30;49136;47.416;19.402;2022-10-31T16:35:35;11.15;98.80
63051;SHT30;49136;47.416;19.402;2022-10-31T16:38:00;11.14;98.80
63051;SHT30;49136;47.416;19.402;2022-10-31T16:40:26;11.12;98.77
63051;SHT30;49136;47.416;19.402;2022-10-31T16:42:52;11.11;98.81
63051;SHT30;49136;47.416;19.402;2022-10-31T16:45:23;11.09;98.85
63051;SHT30;49136;47.416;19.402;2022-10-31T16:47:49;11.11;98.88
63051;SHT30;49136;47.416;19.402;2022-10-31T16:50:23;11.08;98.82
63051;SHT30;49136;47.416;19.402;2022-10-31T16:52:49;11.07;98.78
63051;SHT30;49136;47.416;19.402;2022-10-31T16:55:15;11.08;98.77
63051;SHT30;49136;47.416;19.402;2022-10-31T16:57:44;11.02;98.77
63051;SHT30;49136;47.416;19.402;2022-10-31T17:00:15;11.11;98.74
63051;SHT30;49136;47.416;19.402;2022-10-31T17:02:42;11.05;98.71
63051;SHT30;49136;47.416;19.402;2022-10-31T17:05:11;11.05;98.77
63051;SHT30;49136;47.416;19.402;2022-10-31T17:07:37;10.99;98.79
63051;SHT30;49136;47.416;19.402;2022-10-31T17:10:03;10.99;98.79
63051;SHT30;49136;47.416;19.402;2022-10-31T17:12:28;10.97;98.75
63051;SHT30;49136;47.416;19.402;2022-10-31T17:14:54;10.95;98.73
63051;SHT30;49136;47.416;19.402;2022-10-31T17:17:19;10.97;98.78
63051;SHT30;49136;47.416;19.402;2022-10-31T17:19:45;10.94;98.80
63051;SHT30;49136;47.416;19.402;2022-10-31T17:22:11;10.95;98.77
63051;SHT30;49136;47.416;19.402;2022-10-31T17:24:37;11.05;98.81
63051;SHT30;49136;47.416;19.402;2022-10-31T17:27:03;10.98;98.75
63051;SHT30;49136;47.416;19.402;2022-10-31T17:29:28;10.99;98.81
63051;SHT30;49136;47.416;19.402;2022-10-31T17:31:53;11.02;98.82